sensor_id;sensor_type;location;lat;lon;timestamp;P1;durP1;ratioP1;P2;durP2;ratioP2
55172;SDS011;41061;52.822;6.860;2023-08-08T00:01:06;4.22;;;2.80;;
55172;SDS011;41061;52.822;6.860;2023-08-08T00:03:33;7.85;;;3.20;;
55172;SDS011;41061;52.822;6.860;2023-08-08T00:05:59;7.60;;;3.72;;
55172;SDS011;41061;52.822;6.860;2023-08-08T00:08:25;5.18;;;3.42;;
55172;SDS011;41061;52.822;6.860;2023-08-08T00:10:51;7.03;;;3.72;;
55172;SDS011;41061;52.822;6.860;2023-08-08T00:13:17;7.95;;;3.78;;
55172;SDS011;41061;52.822;6.860;2023-08-08T00:15:43;5.93;;;3.40;;
55172;SDS011;41061;52.822;6.860;2023-08-08T00:18:08;5.57;;;3.45;;
55172;SDS011;41061;52.822;6.860;2023-08-08T00:20:34;6.95;;;3.80;;
55172;SDS011;41061;52.822;6.860;2023-08-08T00:23:00;6.90;;;3.58;;
55172;SDS011;41061;52.822;6.860;2023-08-08T00:25:26;7.63;;;3.72;;
55172;SDS011;41061;52.822;6.860;2023-08-08T00:27:51;8.25;;;4.00;;
55172;SDS011;41061;52.822;6.860;2023-08-08T00:30:17;9.45;;;3.80;;
55172;SDS011;41061;52.822;6.860;2023-08-08T00:32:43;10.95;;;4.00;;
55172;SDS011;41061;52.822;6.860;2023-08-08T00:35:09;9.25;;;4.50;;
55172;SDS011;41061;52.822;6.860;2023-08-08T00:37:34;8.55;;;3.55;;
55172;SDS011;41061;52.822;6.860;2023-08-08T00:40:00;7.43;;;3.45;;
55172;SDS011;41061;52.822;6.860;2023-08-08T00:42:26;6.38;;;3.90;;
55172;SDS011;41061;52.822;6.860;2023-08-08T00:44:52;5.70;;;3.83;;
55172;SDS011;41061;52.822;6.860;2023-08-08T00:47:17;6.28;;;4.15;;
55172;SDS011;41061;52.822;6.860;2023-08-08T00:49:43;9.55;;;3.97;;
55172;SDS011;41061;52.822;6.860;2023-08-08T00:52:11;6.55;;;3.90;;
55172;SDS011;41061;52.822;6.860;2023-08-08T00:54:38;4.13;;;3.50;;
55172;SDS011;41061;52.822;6.860;2023-08-08T00:57:04;8.32;;;3.78;;
55172;SDS011;41061;52.822;6.860;2023-08-08T00:59:30;6.10;;;4.32;;
55172;SDS011;41061;52.822;6.860;2023-08-08T01:01:57;7.07;;;4.30;;
55172;SDS011;41061;52.822;6.860;2023-08-08T01:04:24;7.53;;;4.38;;
55172;SDS011;41061;52.822;6.860;2023-08-08T01:06:58;4.45;;;3.83;;
55172;SDS011;41061;52.822;6.860;2023-08-08T01:09:42;7.45;;;3.70;;
55172;SDS011;41061;52.822;6.860;2023-08-08T01:12:09;10.60;;;4.25;;
55172;SDS011;41061;52.822;6.860;2023-08-08T01:14:36;6.75;;;4.22;;
55172;SDS011;41061;52.822;6.860;2023-08-08T01:17:03;9.80;;;4.00;;
55172;SDS011;41061;52.822;6.860;2023-08-08T01:19:30;7.03;;;4.10;;
55172;SDS011;41061;52.822;6.860;2023-08-08T01:22:04;7.72;;;3.95;;
55172;SDS011;41061;52.822;6.860;2023-08-08T01:24:33;6.80;;;3.53;;
55172;SDS011;41061;52.822;6.860;2023-08-08T01:27:02;7.60;;;3.90;;
55172;SDS011;41061;52.822;6.860;2023-08-08T01:29:29;7.30;;;4.15;;
55172;SDS011;41061;52.822;6.860;2023-08-08T01:31:55;7.30;;;4.30;;
55172;SDS011;41061;52.822;6.860;2023-08-08T01:34:21;7.15;;;4.53;;
55172;SDS011;41061;52.822;6.860;2023-08-08T01:39:17;11.05;;;4.93;;
55172;SDS011;41061;52.822;6.860;2023-08-08T01:41:49;7.22;;;4.30;;
55172;SDS011;41061;52.822;6.860;2023-08-08T01:44:16;8.52;;;4.20;;
55172;SDS011;41061;52.822;6.860;2023-08-08T01:46:43;6.15;;;4.38;;
55172;SDS011;41061;52.822;6.860;2023-08-08T01:49:08;10.48;;;4.75;;
55172;SDS011;41061;52.822;6.860;2023-08-08T01:51:34;8.25;;;4.55;;
55172;SDS011;41061;52.822;6.860;2023-08-08T01:54:00;6.97;;;4.43;;
55172;SDS011;41061;52.822;6.860;2023-08-08T01:56:26;11.20;;;4.57;;
55172;SDS011;41061;52.822;6.860;2023-08-08T01:58:52;10.30;;;4.22;;
55172;SDS011;41061;52.822;6.860;2023-08-08T02:01:17;11.98;;;4.93;;
55172;SDS011;41061;52.822;6.860;2023-08-08T02:03:43;8.00;;;4.35;;
55172;SDS011;41061;52.822;6.860;2023-08-08T02:06:09;13.35;;;4.82;;
55172;SDS011;41061;52.822;6.860;2023-08-08T02:08:34;10.98;;;4.93;;
55172;SDS011;41061;52.822;6.860;2023-08-08T02:11:00;10.60;;;4.82;;
55172;SDS011;41061;52.822;6.860;2023-08-08T02:13:26;8.43;;;5.05;;
55172;SDS011;41061;52.822;6.860;2023-08-08T02:15:51;8.35;;;4.53;;
55172;SDS011;41061;52.822;6.860;2023-08-08T02:18:18;11.05;;;4.43;;
55172;SDS011;41061;52.822;6.860;2023-08-08T02:20:43;13.52;;;4.80;;
55172;SDS011;41061;52.822;6.860;2023-08-08T02:23:09;9.70;;;4.25;;
55172;SDS011;41061;52.822;6.860;2023-08-08T02:25:35;11.60;;;4.75;;
55172;SDS011;41061;52.822;6.860;2023-08-08T02:28:00;6.63;;;3.80;;
55172;SDS011;41061;52.822;6.860;2023-08-08T02:30:26;9.88;;;4.93;;
55172;SDS011;41061;52.822;6.860;2023-08-08T02:32:52;11.30;;;4.63;;
55172;SDS011;41061;52.822;6.860;2023-08-08T02:35:18;9.90;;;5.15;;
55172;SDS011;41061;52.822;6.860;2023-08-08T02:37:43;13.43;;;4.90;;
55172;SDS011;41061;52.822;6.860;2023-08-08T02:40:09;8.85;;;4.47;;
55172;SDS011;41061;52.822;6.860;2023-08-08T02:42:35;8.10;;;4.47;;
55172;SDS011;41061;52.822;6.860;2023-08-08T02:45:01;11.80;;;4.60;;
55172;SDS011;41061;52.822;6.860;2023-08-08T02:47:26;10.52;;;4.43;;
55172;SDS011;41061;52.822;6.860;2023-08-08T02:49:52;11.15;;;4.85;;
55172;SDS011;41061;52.822;6.860;2023-08-08T02:52:18;13.93;;;4.70;;
55172;SDS011;41061;52.822;6.860;2023-08-08T02:54:44;15.10;;;5.00;;
55172;SDS011;41061;52.822;6.860;2023-08-08T02:57:09;8.88;;;4.75;;
55172;SDS011;41061;52.822;6.860;2023-08-08T02:59:37;15.45;;;5.13;;
55172;SDS011;41061;52.822;6.860;2023-08-08T03:02:03;15.63;;;5.25;;
55172;SDS011;41061;52.822;6.860;2023-08-08T03:04:29;13.40;;;5.00;;
55172;SDS011;41061;52.822;6.860;2023-08-08T03:06:55;9.88;;;5.40;;
55172;SDS011;41061;52.822;6.860;2023-08-08T03:09:21;15.27;;;5.50;;
55172;SDS011;41061;52.822;6.860;2023-08-08T03:11:47;14.77;;;5.60;;
55172;SDS011;41061;52.822;6.860;2023-08-08T03:14:13;12.07;;;5.13;;
55172;SDS011;41061;52.822;6.860;2023-08-08T03:16:39;12.38;;;5.18;;
55172;SDS011;41061;52.822;6.860;2023-08-08T03:19:04;9.50;;;5.38;;
55172;SDS011;41061;52.822;6.860;2023-08-08T03:21:30;9.30;;;4.90;;
55172;SDS011;41061;52.822;6.860;2023-08-08T03:23:56;11.48;;;4.97;;
55172;SDS011;41061;52.822;6.860;2023-08-08T03:26:22;9.90;;;5.28;;
55172;SDS011;41061;52.822;6.860;2023-08-08T03:28:48;12.00;;;4.88;;
55172;SDS011;41061;52.822;6.860;2023-08-08T03:31:16;13.20;;;5.85;;
55172;SDS011;41061;52.822;6.860;2023-08-08T03:33:42;11.15;;;5.80;;
55172;SDS011;41061;52.822;6.860;2023-08-08T03:36:08;14.45;;;6.03;;
55172;SDS011;41061;52.822;6.860;2023-08-08T03:38:34;12.82;;;5.82;;
55172;SDS011;41061;52.822;6.860;2023-08-08T03:41:00;13.10;;;5.55;;
55172;SDS011;41061;52.822;6.860;2023-08-08T03:43:26;16.10;;;5.80;;
55172;SDS011;41061;52.822;6.860;2023-08-08T03:45:52;9.52;;;5.35;;
55172;SDS011;41061;52.822;6.860;2023-08-08T03:48:17;14.18;;;5.18;;
55172;SDS011;41061;52.822;6.860;2023-08-08T03:50:43;19.15;;;5.80;;
55172;SDS011;41061;52.822;6.860;2023-08-08T03:53:09;16.92;;;5.55;;
55172;SDS011;41061;52.822;6.860;2023-08-08T03:55:34;14.68;;;4.93;;
55172;SDS011;41061;52.822;6.860;2023-08-08T03:58:00;15.32;;;5.18;;
55172;SDS011;41061;52.822;6.860;2023-08-08T04:00:26;13.27;;;4.88;;
55172;SDS011;41061;52.822;6.860;2023-08-08T04:02:51;7.88;;;4.38;;
55172;SDS011;41061;52.822;6.860;2023-08-08T04:05:17;12.60;;;4.68;;
55172;SDS011;41061;52.822;6.860;2023-08-08T04:07:43;15.63;;;4.50;;
55172;SDS011;41061;52.822;6.860;2023-08-08T04:10:09;11.30;;;4.15;;
55172;SDS011;41061;52.822;6.860;2023-08-08T04:12:35;10.32;;;3.53;;
55172;SDS011;41061;52.822;6.860;2023-08-08T04:15:01;9.90;;;3.70;;
55172;SDS011;41061;52.822;6.860;2023-08-08T04:17:28;11.73;;;4.00;;
55172;SDS011;41061;52.822;6.860;2023-08-08T04:19:53;13.35;;;3.58;;
55172;SDS011;41061;52.822;6.860;2023-08-08T04:22:19;10.10;;;2.97;;
55172;SDS011;41061;52.822;6.860;2023-08-08T04:24:45;12.77;;;3.40;;
55172;SDS011;41061;52.822;6.860;2023-08-08T04:27:11;14.77;;;3.60;;
55172;SDS011;41061;52.822;6.860;2023-08-08T04:29:36;13.35;;;3.20;;
55172;SDS011;41061;52.822;6.860;2023-08-08T04:32:02;10.15;;;4.03;;
55172;SDS011;41061;52.822;6.860;2023-08-08T04:34:28;8.45;;;3.13;;
55172;SDS011;41061;52.822;6.860;2023-08-08T04:36:54;7.90;;;2.88;;
55172;SDS011;41061;52.822;6.860;2023-08-08T04:39:20;10.55;;;3.60;;
55172;SDS011;41061;52.822;6.860;2023-08-08T04:41:46;13.63;;;3.30;;
55172;SDS011;41061;52.822;6.860;2023-08-08T04:44:11;11.90;;;2.92;;
55172;SDS011;41061;52.822;6.860;2023-08-08T04:46:37;6.55;;;2.63;;
55172;SDS011;41061;52.822;6.860;2023-08-08T04:49:03;12.20;;;2.72;;
55172;SDS011;41061;52.822;6.860;2023-08-08T04:51:29;5.82;;;2.63;;
55172;SDS011;41061;52.822;6.860;2023-08-08T04:53:54;14.38;;;3.33;;
55172;SDS011;41061;52.822;6.860;2023-08-08T04:56:20;9.02;;;2.25;;
55172;SDS011;41061;52.822;6.860;2023-08-08T04:58:46;10.02;;;2.50;;
55172;SDS011;41061;52.822;6.860;2023-08-08T05:01:11;8.25;;;2.42;;
55172;SDS011;41061;52.822;6.860;2023-08-08T05:03:40;6.40;;;2.22;;
55172;SDS011;41061;52.822;6.860;2023-08-08T05:06:06;10.60;;;2.60;;
55172;SDS011;41061;52.822;6.860;2023-08-08T05:08:32;10.07;;;2.65;;
55172;SDS011;41061;52.822;6.860;2023-08-08T05:10:58;6.00;;;2.15;;
55172;SDS011;41061;52.822;6.860;2023-08-08T05:13:23;8.88;;;2.30;;
55172;SDS011;41061;52.822;6.860;2023-08-08T05:15:49;7.38;;;2.47;;
55172;SDS011;41061;52.822;6.860;2023-08-08T05:18:15;5.35;;;1.98;;
55172;SDS011;41061;52.822;6.860;2023-08-08T05:20:41;13.13;;;2.40;;
55172;SDS011;41061;52.822;6.860;2023-08-08T05:23:07;8.05;;;2.13;;
55172;SDS011;41061;52.822;6.860;2023-08-08T05:25:32;6.45;;;2.15;;
55172;SDS011;41061;52.822;6.860;2023-08-08T05:27:58;9.40;;;2.30;;
55172;SDS011;41061;52.822;6.860;2023-08-08T05:30:24;10.25;;;2.25;;
55172;SDS011;41061;52.822;6.860;2023-08-08T05:32:49;5.10;;;2.10;;
55172;SDS011;41061;52.822;6.860;2023-08-08T05:35:15;8.07;;;2.50;;
55172;SDS011;41061;52.822;6.860;2023-08-08T05:37:41;8.65;;;2.20;;
55172;SDS011;41061;52.822;6.860;2023-08-08T05:40:07;12.00;;;1.83;;
55172;SDS011;41061;52.822;6.860;2023-08-08T05:42:35;8.57;;;1.98;;
55172;SDS011;41061;52.822;6.860;2023-08-08T05:45:01;10.20;;;2.00;;
55172;SDS011;41061;52.822;6.860;2023-08-08T05:47:27;7.28;;;1.50;;
55172;SDS011;41061;52.822;6.860;2023-08-08T05:49:53;7.35;;;1.77;;
55172;SDS011;41061;52.822;6.860;2023-08-08T05:52:18;8.85;;;1.73;;
55172;SDS011;41061;52.822;6.860;2023-08-08T05:54:46;6.68;;;1.95;;
55172;SDS011;41061;52.822;6.860;2023-08-08T05:57:11;9.90;;;2.20;;
55172;SDS011;41061;52.822;6.860;2023-08-08T05:59:37;6.80;;;1.73;;
55172;SDS011;41061;52.822;6.860;2023-08-08T06:02:03;8.85;;;1.42;;
55172;SDS011;41061;52.822;6.860;2023-08-08T06:04:29;4.75;;;1.50;;
55172;SDS011;41061;52.822;6.860;2023-08-08T06:06:55;5.43;;;1.67;;
55172;SDS011;41061;52.822;6.860;2023-08-08T06:09:21;5.20;;;1.25;;
55172;SDS011;41061;52.822;6.860;2023-08-08T06:11:47;5.88;;;1.25;;
55172;SDS011;41061;52.822;6.860;2023-08-08T06:14:13;4.53;;;1.73;;
55172;SDS011;41061;52.822;6.860;2023-08-08T06:16:39;9.05;;;2.10;;
55172;SDS011;41061;52.822;6.860;2023-08-08T06:19:05;5.82;;;1.20;;
55172;SDS011;41061;52.822;6.860;2023-08-08T06:21:31;11.27;;;1.83;;
55172;SDS011;41061;52.822;6.860;2023-08-08T06:23:57;4.90;;;1.48;;
55172;SDS011;41061;52.822;6.860;2023-08-08T06:26:22;8.65;;;1.48;;
55172;SDS011;41061;52.822;6.860;2023-08-08T06:28:49;6.10;;;1.77;;
55172;SDS011;41061;52.822;6.860;2023-08-08T06:31:16;8.65;;;1.60;;
55172;SDS011;41061;52.822;6.860;2023-08-08T06:33:43;6.85;;;1.30;;
55172;SDS011;41061;52.822;6.860;2023-08-08T06:36:09;4.63;;;1.38;;
55172;SDS011;41061;52.822;6.860;2023-08-08T06:38:34;3.90;;;1.02;;
55172;SDS011;41061;52.822;6.860;2023-08-08T06:41:01;5.57;;;1.35;;
55172;SDS011;41061;52.822;6.860;2023-08-08T06:43:27;6.63;;;1.30;;
55172;SDS011;41061;52.822;6.860;2023-08-08T06:45:53;9.10;;;1.20;;
55172;SDS011;41061;52.822;6.860;2023-08-08T06:48:19;10.98;;;1.60;;
55172;SDS011;41061;52.822;6.860;2023-08-08T06:50:45;8.32;;;1.30;;
55172;SDS011;41061;52.822;6.860;2023-08-08T06:53:10;9.25;;;1.50;;
55172;SDS011;41061;52.822;6.860;2023-08-08T06:55:36;8.88;;;1.30;;
55172;SDS011;41061;52.822;6.860;2023-08-08T06:58:02;10.10;;;2.15;;
55172;SDS011;41061;52.822;6.860;2023-08-08T07:00:28;12.60;;;2.05;;
55172;SDS011;41061;52.822;6.860;2023-08-08T07:02:54;8.82;;;1.35;;
55172;SDS011;41061;52.822;6.860;2023-08-08T07:05:20;6.43;;;1.67;;
55172;SDS011;41061;52.822;6.860;2023-08-08T07:07:48;10.40;;;1.75;;
55172;SDS011;41061;52.822;6.860;2023-08-08T07:10:15;6.53;;;1.38;;
55172;SDS011;41061;52.822;6.860;2023-08-08T07:12:41;7.45;;;1.35;;
55172;SDS011;41061;52.822;6.860;2023-08-08T07:15:07;8.70;;;1.60;;
55172;SDS011;41061;52.822;6.860;2023-08-08T07:17:33;8.52;;;1.40;;
55172;SDS011;41061;52.822;6.860;2023-08-08T07:19:59;7.00;;;1.02;;
55172;SDS011;41061;52.822;6.860;2023-08-08T07:22:25;5.90;;;1.35;;
55172;SDS011;41061;52.822;6.860;2023-08-08T07:24:51;4.60;;;1.70;;
55172;SDS011;41061;52.822;6.860;2023-08-08T07:27:17;7.03;;;1.58;;
55172;SDS011;41061;52.822;6.860;2023-08-08T07:29:43;8.35;;;1.10;;
55172;SDS011;41061;52.822;6.860;2023-08-08T07:32:10;6.88;;;1.35;;
55172;SDS011;41061;52.822;6.860;2023-08-08T07:34:36;15.35;;;1.45;;
55172;SDS011;41061;52.822;6.860;2023-08-08T07:37:02;3.80;;;1.20;;
55172;SDS011;41061;52.822;6.860;2023-08-08T07:39:29;8.95;;;1.58;;
55172;SDS011;41061;52.822;6.860;2023-08-08T07:41:55;6.28;;;1.20;;
55172;SDS011;41061;52.822;6.860;2023-08-08T07:44:22;9.18;;;1.52;;
55172;SDS011;41061;52.822;6.860;2023-08-08T07:46:48;6.63;;;1.10;;
55172;SDS011;41061;52.822;6.860;2023-08-08T07:49:14;10.68;;;1.40;;
55172;SDS011;41061;52.822;6.860;2023-08-08T07:51:41;7.32;;;1.45;;
55172;SDS011;41061;52.822;6.860;2023-08-08T07:54:07;11.68;;;1.30;;
55172;SDS011;41061;52.822;6.860;2023-08-08T07:56:35;5.75;;;1.25;;
55172;SDS011;41061;52.822;6.860;2023-08-08T07:59:01;4.90;;;1.33;;
55172;SDS011;41061;52.822;6.860;2023-08-08T08:01:28;3.35;;;1.00;;
55172;SDS011;41061;52.822;6.860;2023-08-08T08:03:54;5.30;;;1.20;;
55172;SDS011;41061;52.822;6.860;2023-08-08T08:06:20;8.05;;;1.92;;
55172;SDS011;41061;52.822;6.860;2023-08-08T08:08:47;7.43;;;1.38;;
55172;SDS011;41061;52.822;6.860;2023-08-08T08:11:13;5.60;;;1.00;;
55172;SDS011;41061;52.822;6.860;2023-08-08T08:13:41;3.92;;;1.00;;
55172;SDS011;41061;52.822;6.860;2023-08-08T08:16:07;5.28;;;1.20;;
55172;SDS011;41061;52.822;6.860;2023-08-08T08:18:33;5.63;;;1.30;;
55172;SDS011;41061;52.822;6.860;2023-08-08T08:21:00;4.57;;;0.90;;
55172;SDS011;41061;52.822;6.860;2023-08-08T08:23:26;7.57;;;1.30;;
55172;SDS011;41061;52.822;6.860;2023-08-08T08:25:52;5.03;;;1.20;;
55172;SDS011;41061;52.822;6.860;2023-08-08T08:28:18;5.00;;;0.95;;
55172;SDS011;41061;52.822;6.860;2023-08-08T08:30:44;7.00;;;1.15;;
55172;SDS011;41061;52.822;6.860;2023-08-08T08:33:11;3.40;;;0.85;;
55172;SDS011;41061;52.822;6.860;2023-08-08T08:35:37;5.38;;;0.90;;
55172;SDS011;41061;52.822;6.860;2023-08-08T08:38:03;7.45;;;1.40;;
55172;SDS011;41061;52.822;6.860;2023-08-08T08:40:30;5.25;;;1.20;;
55172;SDS011;41061;52.822;6.860;2023-08-08T08:42:59;7.53;;;1.45;;
55172;SDS011;41061;52.822;6.860;2023-08-08T08:45:26;4.85;;;1.20;;
55172;SDS011;41061;52.822;6.860;2023-08-08T08:47:54;5.25;;;1.67;;
55172;SDS011;41061;52.822;6.860;2023-08-08T08:50:21;3.90;;;1.00;;
55172;SDS011;41061;52.822;6.860;2023-08-08T08:52:48;3.60;;;1.00;;
55172;SDS011;41061;52.822;6.860;2023-08-08T08:55:15;2.55;;;1.10;;
55172;SDS011;41061;52.822;6.860;2023-08-08T08:57:42;6.93;;;1.05;;
55172;SDS011;41061;52.822;6.860;2023-08-08T09:00:09;9.57;;;1.30;;
55172;SDS011;41061;52.822;6.860;2023-08-08T09:02:36;9.50;;;1.25;;
55172;SDS011;41061;52.822;6.860;2023-08-08T09:05:02;2.60;;;1.17;;
55172;SDS011;41061;52.822;6.860;2023-08-08T09:07:29;5.18;;;1.02;;
55172;SDS011;41061;52.822;6.860;2023-08-08T09:09:55;4.13;;;1.08;;
55172;SDS011;41061;52.822;6.860;2023-08-08T09:12:21;5.40;;;1.17;;
55172;SDS011;41061;52.822;6.860;2023-08-08T09:14:53;4.57;;;1.00;;
55172;SDS011;41061;52.822;6.860;2023-08-08T09:17:20;8.55;;;1.45;;
55172;SDS011;41061;52.822;6.860;2023-08-08T09:19:46;5.53;;;1.08;;
55172;SDS011;41061;52.822;6.860;2023-08-08T09:22:12;10.57;;;1.10;;
55172;SDS011;41061;52.822;6.860;2023-08-08T09:24:39;6.10;;;1.25;;
55172;SDS011;41061;52.822;6.860;2023-08-08T09:27:06;3.63;;;0.85;;
55172;SDS011;41061;52.822;6.860;2023-08-08T09:29:32;4.30;;;1.17;;
55172;SDS011;41061;52.822;6.860;2023-08-08T09:32:02;4.15;;;1.10;;
55172;SDS011;41061;52.822;6.860;2023-08-08T09:34:29;7.50;;;1.05;;
55172;SDS011;41061;52.822;6.860;2023-08-08T09:36:55;4.45;;;1.10;;
55172;SDS011;41061;52.822;6.860;2023-08-08T09:39:21;4.28;;;1.10;;
55172;SDS011;41061;52.822;6.860;2023-08-08T09:41:47;5.00;;;1.30;;
55172;SDS011;41061;52.822;6.860;2023-08-08T09:44:13;4.70;;;1.00;;
55172;SDS011;41061;52.822;6.860;2023-08-08T09:46:39;5.70;;;1.17;;
55172;SDS011;41061;52.822;6.860;2023-08-08T09:49:06;5.22;;;0.90;;
55172;SDS011;41061;52.822;6.860;2023-08-08T09:51:32;6.18;;;1.17;;
55172;SDS011;41061;52.822;6.860;2023-08-08T09:53:59;5.75;;;0.98;;
55172;SDS011;41061;52.822;6.860;2023-08-08T09:56:26;2.60;;;0.80;;
55172;SDS011;41061;52.822;6.860;2023-08-08T09:58:53;2.25;;;0.60;;
55172;SDS011;41061;52.822;6.860;2023-08-08T10:01:19;3.58;;;0.88;;
55172;SDS011;41061;52.822;6.860;2023-08-08T10:03:45;2.50;;;0.65;;
55172;SDS011;41061;52.822;6.860;2023-08-08T10:06:12;5.15;;;0.88;;
55172;SDS011;41061;52.822;6.860;2023-08-08T10:08:39;4.60;;;1.05;;
55172;SDS011;41061;52.822;6.860;2023-08-08T10:11:05;6.30;;;1.08;;
55172;SDS011;41061;52.822;6.860;2023-08-08T10:13:35;7.60;;;1.00;;
55172;SDS011;41061;52.822;6.860;2023-08-08T10:16:08;8.07;;;1.58;;
55172;SDS011;41061;52.822;6.860;2023-08-08T10:18:34;5.43;;;1.25;;
55172;SDS011;41061;52.822;6.860;2023-08-08T10:21:03;5.70;;;1.25;;
55172;SDS011;41061;52.822;6.860;2023-08-08T10:23:35;4.00;;;1.15;;
55172;SDS011;41061;52.822;6.860;2023-08-08T10:26:02;5.35;;;1.35;;
55172;SDS011;41061;52.822;6.860;2023-08-08T10:28:28;3.65;;;1.02;;
55172;SDS011;41061;52.822;6.860;2023-08-08T10:30:55;3.70;;;1.05;;
55172;SDS011;41061;52.822;6.860;2023-08-08T10:34:00;2.63;;;1.02;;
55172;SDS011;41061;52.822;6.860;2023-08-08T10:36:14;6.28;;;1.27;;
55172;SDS011;41061;52.822;6.860;2023-08-08T10:38:44;4.63;;;1.25;;
55172;SDS011;41061;52.822;6.860;2023-08-08T10:41:19;6.78;;;1.80;;
55172;SDS011;41061;52.822;6.860;2023-08-08T10:46:31;8.95;;;1.73;;
55172;SDS011;41061;52.822;6.860;2023-08-08T10:48:58;10.02;;;1.00;;
55172;SDS011;41061;52.822;6.860;2023-08-08T10:54:04;4.03;;;1.27;;
55172;SDS011;41061;52.822;6.860;2023-08-08T10:56:31;2.35;;;1.10;;
55172;SDS011;41061;52.822;6.860;2023-08-08T10:58:57;4.45;;;1.35;;
55172;SDS011;41061;52.822;6.860;2023-08-08T11:01:26;5.78;;;1.60;;
55172;SDS011;41061;52.822;6.860;2023-08-08T11:03:53;7.03;;;1.20;;
55172;SDS011;41061;52.822;6.860;2023-08-08T11:06:22;4.00;;;1.20;;
55172;SDS011;41061;52.822;6.860;2023-08-08T11:08:48;7.10;;;1.30;;
55172;SDS011;41061;52.822;6.860;2023-08-08T11:11:16;3.85;;;1.40;;
55172;SDS011;41061;52.822;6.860;2023-08-08T11:13:42;5.68;;;1.25;;
55172;SDS011;41061;52.822;6.860;2023-08-08T11:16:07;4.00;;;1.00;;
55172;SDS011;41061;52.822;6.860;2023-08-08T11:18:33;6.70;;;1.50;;
55172;SDS011;41061;52.822;6.860;2023-08-08T11:21:00;6.78;;;0.93;;
55172;SDS011;41061;52.822;6.860;2023-08-08T11:23:34;5.32;;;1.02;;
55172;SDS011;41061;52.822;6.860;2023-08-08T11:26:03;3.75;;;1.02;;
55172;SDS011;41061;52.822;6.860;2023-08-08T11:28:29;5.72;;;1.02;;
55172;SDS011;41061;52.822;6.860;2023-08-08T11:30:55;5.25;;;1.30;;
55172;SDS011;41061;52.822;6.860;2023-08-08T11:33:21;5.68;;;1.13;;
55172;SDS011;41061;52.822;6.860;2023-08-08T11:35:47;5.88;;;1.30;;
55172;SDS011;41061;52.822;6.860;2023-08-08T11:38:14;4.45;;;1.20;;
55172;SDS011;41061;52.822;6.860;2023-08-08T11:40:40;4.90;;;1.40;;
55172;SDS011;41061;52.822;6.860;2023-08-08T11:43:07;7.47;;;1.20;;
55172;SDS011;41061;52.822;6.860;2023-08-08T11:45:33;4.07;;;1.00;;
55172;SDS011;41061;52.822;6.860;2023-08-08T11:47:59;4.15;;;1.20;;
55172;SDS011;41061;52.822;6.860;2023-08-08T11:50:26;3.50;;;0.88;;
55172;SDS011;41061;52.822;6.860;2023-08-08T11:52:54;3.83;;;0.98;;
55172;SDS011;41061;52.822;6.860;2023-08-08T11:55:21;8.98;;;1.20;;
55172;SDS011;41061;52.822;6.860;2023-08-08T11:57:54;3.85;;;1.13;;
55172;SDS011;41061;52.822;6.860;2023-08-08T12:00:25;6.15;;;1.30;;
55172;SDS011;41061;52.822;6.860;2023-08-08T12:02:55;7.82;;;2.70;;
55172;SDS011;41061;52.822;6.860;2023-08-08T12:05:22;3.33;;;0.95;;
55172;SDS011;41061;52.822;6.860;2023-08-08T12:07:48;5.18;;;1.45;;
55172;SDS011;41061;52.822;6.860;2023-08-08T12:10:18;3.17;;;0.90;;
55172;SDS011;41061;52.822;6.860;2023-08-08T12:12:46;4.20;;;0.85;;
55172;SDS011;41061;52.822;6.860;2023-08-08T12:15:17;3.60;;;0.98;;
55172;SDS011;41061;52.822;6.860;2023-08-08T12:17:43;7.10;;;1.17;;
55172;SDS011;41061;52.822;6.860;2023-08-08T12:20:08;3.88;;;1.15;;
55172;SDS011;41061;52.822;6.860;2023-08-08T12:22:35;11.55;;;1.75;;
55172;SDS011;41061;52.822;6.860;2023-08-08T12:25:02;3.67;;;1.02;;
55172;SDS011;41061;52.822;6.860;2023-08-08T12:27:29;5.03;;;1.60;;
55172;SDS011;41061;52.822;6.860;2023-08-08T12:29:55;3.13;;;1.20;;
55172;SDS011;41061;52.822;6.860;2023-08-08T12:32:21;3.97;;;0.95;;
55172;SDS011;41061;52.822;6.860;2023-08-08T12:34:51;6.38;;;1.33;;
55172;SDS011;41061;52.822;6.860;2023-08-08T12:37:18;2.70;;;0.95;;
55172;SDS011;41061;52.822;6.860;2023-08-08T12:39:46;3.85;;;1.13;;
55172;SDS011;41061;52.822;6.860;2023-08-08T12:42:12;7.68;;;1.40;;
55172;SDS011;41061;52.822;6.860;2023-08-08T12:44:38;4.65;;;1.30;;
55172;SDS011;41061;52.822;6.860;2023-08-08T12:47:03;5.20;;;0.82;;
55172;SDS011;41061;52.822;6.860;2023-08-08T12:49:29;2.75;;;0.85;;
55172;SDS011;41061;52.822;6.860;2023-08-08T12:51:55;5.53;;;1.05;;
55172;SDS011;41061;52.822;6.860;2023-08-08T12:54:21;4.57;;;0.95;;
55172;SDS011;41061;52.822;6.860;2023-08-08T12:56:47;4.65;;;0.88;;
55172;SDS011;41061;52.822;6.860;2023-08-08T12:59:14;3.22;;;0.77;;
55172;SDS011;41061;52.822;6.860;2023-08-08T13:01:39;4.97;;;1.10;;
55172;SDS011;41061;52.822;6.860;2023-08-08T13:04:05;5.93;;;1.00;;
55172;SDS011;41061;52.822;6.860;2023-08-08T13:06:31;3.13;;;1.00;;
55172;SDS011;41061;52.822;6.860;2023-08-08T13:08:58;4.50;;;1.27;;
55172;SDS011;41061;52.822;6.860;2023-08-08T13:11:27;6.93;;;1.00;;
55172;SDS011;41061;52.822;6.860;2023-08-08T13:13:52;3.60;;;0.90;;
55172;SDS011;41061;52.822;6.860;2023-08-08T13:16:18;4.93;;;1.05;;
55172;SDS011;41061;52.822;6.860;2023-08-08T13:18:44;4.72;;;1.15;;
55172;SDS011;41061;52.822;6.860;2023-08-08T13:21:10;2.53;;;0.95;;
55172;SDS011;41061;52.822;6.860;2023-08-08T13:23:36;3.30;;;1.00;;
55172;SDS011;41061;52.822;6.860;2023-08-08T13:26:01;3.88;;;1.17;;
55172;SDS011;41061;52.822;6.860;2023-08-08T13:28:29;5.13;;;1.10;;
55172;SDS011;41061;52.822;6.860;2023-08-08T13:30:55;3.90;;;1.08;;
55172;SDS011;41061;52.822;6.860;2023-08-08T13:33:20;6.28;;;1.23;;
55172;SDS011;41061;52.822;6.860;2023-08-08T13:35:47;4.18;;;1.15;;
55172;SDS011;41061;52.822;6.860;2023-08-08T13:38:12;4.35;;;0.88;;
55172;SDS011;41061;52.822;6.860;2023-08-08T13:40:42;4.45;;;0.90;;
55172;SDS011;41061;52.822;6.860;2023-08-08T13:43:09;2.28;;;1.00;;
55172;SDS011;41061;52.822;6.860;2023-08-08T13:45:35;4.20;;;1.05;;
55172;SDS011;41061;52.822;6.860;2023-08-08T13:48:01;6.15;;;1.17;;
55172;SDS011;41061;52.822;6.860;2023-08-08T13:50:27;3.15;;;1.00;;
55172;SDS011;41061;52.822;6.860;2023-08-08T13:52:53;4.13;;;1.20;;
55172;SDS011;41061;52.822;6.860;2023-08-08T13:55:19;4.63;;;1.00;;
55172;SDS011;41061;52.822;6.860;2023-08-08T13:57:45;6.85;;;1.05;;
55172;SDS011;41061;52.822;6.860;2023-08-08T14:00:11;5.82;;;1.27;;
55172;SDS011;41061;52.822;6.860;2023-08-08T14:02:38;4.40;;;1.10;;
55172;SDS011;41061;52.822;6.860;2023-08-08T14:05:04;5.47;;;1.63;;
55172;SDS011;41061;52.822;6.860;2023-08-08T14:07:34;6.78;;;1.58;;
55172;SDS011;41061;52.822;6.860;2023-08-08T14:10:03;7.45;;;1.45;;
55172;SDS011;41061;52.822;6.860;2023-08-08T14:12:29;6.05;;;1.35;;
55172;SDS011;41061;52.822;6.860;2023-08-08T14:14:55;3.28;;;1.08;;
55172;SDS011;41061;52.822;6.860;2023-08-08T14:17:21;8.82;;;1.52;;
55172;SDS011;41061;52.822;6.860;2023-08-08T14:19:47;4.60;;;1.02;;
55172;SDS011;41061;52.822;6.860;2023-08-08T14:22:13;4.20;;;1.00;;
55172;SDS011;41061;52.822;6.860;2023-08-08T14:24:40;3.42;;;0.93;;
55172;SDS011;41061;52.822;6.860;2023-08-08T14:27:09;4.13;;;1.00;;
55172;SDS011;41061;52.822;6.860;2023-08-08T14:29:35;2.90;;;1.10;;
55172;SDS011;41061;52.822;6.860;2023-08-08T14:32:01;5.25;;;0.93;;
55172;SDS011;41061;52.822;6.860;2023-08-08T14:34:30;3.08;;;1.00;;
55172;SDS011;41061;52.822;6.860;2023-08-08T14:36:57;4.97;;;1.38;;
55172;SDS011;41061;52.822;6.860;2023-08-08T14:39:24;4.68;;;1.20;;
55172;SDS011;41061;52.822;6.860;2023-08-08T14:41:51;7.03;;;1.20;;
55172;SDS011;41061;52.822;6.860;2023-08-08T14:44:17;3.33;;;0.98;;
55172;SDS011;41061;52.822;6.860;2023-08-08T14:46:43;4.65;;;1.10;;
55172;SDS011;41061;52.822;6.860;2023-08-08T14:49:09;5.47;;;1.25;;